sensor_id;sensor_type;location;lat;lon;timestamp;P1;durP1;ratioP1;P2;durP2;ratioP2
32319;SDS011;19080;51.750;5.888;2022-10-30T00:02:24;13.60;;;8.77;;
32319;SDS011;19080;51.750;5.888;2022-10-30T00:04:51;15.52;;;8.00;;
32319;SDS011;19080;51.750;5.888;2022-10-30T00:07:17;14.82;;;7.97;;
32319;SDS011;19080;51.750;5.888;2022-10-30T00:09:43;16.58;;;8.68;;
32319;SDS011;19080;51.750;5.888;2022-10-30T00:12:10;16.90;;;8.48;;
32319;SDS011;19080;51.750;5.888;2022-10-30T00:14:36;12.23;;;7.63;;
32319;SDS011;19080;51.750;5.888;2022-10-30T00:17:02;14.52;;;7.93;;
32319;SDS011;19080;51.750;5.888;2022-10-30T00:19:30;18.00;;;8.23;;
32319;SDS011;19080;51.750;5.888;2022-10-30T00:21:56;17.15;;;8.32;;
32319;SDS011;19080;51.750;5.888;2022-10-30T00:24:22;14.15;;;7.65;;
32319;SDS011;19080;51.750;5.888;2022-10-30T00:26:48;16.25;;;8.68;;
32319;SDS011;19080;51.750;5.888;2022-10-30T00:29:15;18.85;;;8.95;;
32319;SDS011;19080;51.750;5.888;2022-10-30T00:31:41;17.70;;;8.60;;
32319;SDS011;19080;51.750;5.888;2022-10-30T00:34:07;19.80;;;8.40;;
32319;SDS011;19080;51.750;5.888;2022-10-30T00:36:34;14.50;;;8.27;;
32319;SDS011;19080;51.750;5.888;2022-10-30T00:39:00;19.58;;;8.45;;
32319;SDS011;19080;51.750;5.888;2022-10-30T00:41:27;10.88;;;7.65;;
32319;SDS011;19080;51.750;5.888;2022-10-30T00:43:55;13.98;;;8.00;;
32319;SDS011;19080;51.750;5.888;2022-10-30T00:48:57;16.48;;;9.77;;
32319;SDS011;19080;51.750;5.888;2022-10-30T00:51:24;13.65;;;8.02;;
32319;SDS011;19080;51.750;5.888;2022-10-30T00:53:52;15.27;;;8.50;;
32319;SDS011;19080;51.750;5.888;2022-10-30T00:56:21;14.00;;;7.82;;
32319;SDS011;19080;51.750;5.888;2022-10-30T00:58:53;20.63;;;8.85;;
32319;SDS011;19080;51.750;5.888;2022-10-30T01:01:21;14.98;;;9.48;;
32319;SDS011;19080;51.750;5.888;2022-10-30T01:03:49;15.52;;;9.98;;
32319;SDS011;19080;51.750;5.888;2022-10-30T01:06:17;19.13;;;9.45;;
32319;SDS011;19080;51.750;5.888;2022-10-30T01:08:44;21.10;;;9.50;;
32319;SDS011;19080;51.750;5.888;2022-10-30T01:11:11;20.50;;;9.80;;
32319;SDS011;19080;51.750;5.888;2022-10-30T01:13:39;16.08;;;8.75;;
32319;SDS011;19080;51.750;5.888;2022-10-30T01:18:52;17.80;;;9.23;;
32319;SDS011;19080;51.750;5.888;2022-10-30T01:21:30;14.05;;;9.23;;
32319;SDS011;19080;51.750;5.888;2022-10-30T01:26:50;16.42;;;9.27;;
32319;SDS011;19080;51.750;5.888;2022-10-30T01:29:38;14.90;;;10.25;;
32319;SDS011;19080;51.750;5.888;2022-10-30T01:34:58;16.07;;;8.50;;
32319;SDS011;19080;51.750;5.888;2022-10-30T01:37:31;12.60;;;8.23;;
32319;SDS011;19080;51.750;5.888;2022-10-30T01:40:02;11.20;;;7.63;;
32319;SDS011;19080;51.750;5.888;2022-10-30T01:46:08;14.30;;;8.60;;
32319;SDS011;19080;51.750;5.888;2022-10-30T01:48:15;18.35;;;8.35;;
32319;SDS011;19080;51.750;5.888;2022-10-30T01:50:58;15.43;;;8.90;;
32319;SDS011;19080;51.750;5.888;2022-10-30T01:53:50;15.48;;;8.60;;
32319;SDS011;19080;51.750;5.888;2022-10-30T01:58:59;10.07;;;7.00;;
32319;SDS011;19080;51.750;5.888;2022-10-30T02:01:26;12.32;;;8.20;;
32319;SDS011;19080;51.750;5.888;2022-10-30T02:03:55;17.88;;;8.45;;
32319;SDS011;19080;51.750;5.888;2022-10-30T02:06:22;19.42;;;8.90;;
32319;SDS011;19080;51.750;5.888;2022-10-30T02:08:49;17.90;;;8.68;;
32319;SDS011;19080;51.750;5.888;2022-10-30T02:11:15;14.70;;;8.48;;
32319;SDS011;19080;51.750;5.888;2022-10-30T02:13:42;15.25;;;9.63;;
32319;SDS011;19080;51.750;5.888;2022-10-30T02:16:08;15.00;;;8.52;;
32319;SDS011;19080;51.750;5.888;2022-10-30T02:18:35;11.25;;;8.00;;
32319;SDS011;19080;51.750;5.888;2022-10-30T02:21:02;14.85;;;8.68;;
32319;SDS011;19080;51.750;5.888;2022-10-30T02:23:28;15.15;;;8.18;;
32319;SDS011;19080;51.750;5.888;2022-10-30T02:25:55;12.57;;;8.07;;
32319;SDS011;19080;51.750;5.888;2022-10-30T02:28:22;12.93;;;8.00;;
32319;SDS011;19080;51.750;5.888;2022-10-30T02:30:49;14.27;;;8.80;;
32319;SDS011;19080;51.750;5.888;2022-10-30T02:33:15;14.70;;;8.57;;
32319;SDS011;19080;51.750;5.888;2022-10-30T02:35:47;19.33;;;9.45;;
32319;SDS011;19080;51.750;5.888;2022-10-30T02:38:13;20.65;;;9.48;;
32319;SDS011;19080;51.750;5.888;2022-10-30T02:40:40;18.88;;;9.07;;
32319;SDS011;19080;51.750;5.888;2022-10-30T02:43:06;13.45;;;8.52;;
32319;SDS011;19080;51.750;5.888;2022-10-30T02:45:33;15.98;;;8.50;;
32319;SDS011;19080;51.750;5.888;2022-10-30T02:48:00;13.23;;;8.65;;
32319;SDS011;19080;51.750;5.888;2022-10-30T02:50:28;14.65;;;8.52;;
32319;SDS011;19080;51.750;5.888;2022-10-30T02:52:54;18.08;;;9.82;;
32319;SDS011;19080;51.750;5.888;2022-10-30T02:55:21;16.92;;;11.52;;
32319;SDS011;19080;51.750;5.888;2022-10-30T02:57:49;15.25;;;10.07;;
32319;SDS011;19080;51.750;5.888;2022-10-30T03:00:16;13.85;;;9.13;;
32319;SDS011;19080;51.750;5.888;2022-10-30T03:02:43;17.10;;;10.05;;
32319;SDS011;19080;51.750;5.888;2022-10-30T03:05:09;18.35;;;9.20;;
32319;SDS011;19080;51.750;5.888;2022-10-30T03:07:36;13.32;;;9.10;;
32319;SDS011;19080;51.750;5.888;2022-10-30T03:10:02;17.60;;;9.75;;
32319;SDS011;19080;51.750;5.888;2022-10-30T03:12:31;11.60;;;8.55;;
32319;SDS011;19080;51.750;5.888;2022-10-30T03:14:58;13.02;;;8.52;;
32319;SDS011;19080;51.750;5.888;2022-10-30T03:17:25;12.35;;;8.80;;
32319;SDS011;19080;51.750;5.888;2022-10-30T03:19:51;13.15;;;8.60;;
32319;SDS011;19080;51.750;5.888;2022-10-30T03:22:19;14.15;;;8.48;;
32319;SDS011;19080;51.750;5.888;2022-10-30T03:24:45;16.65;;;9.55;;
32319;SDS011;19080;51.750;5.888;2022-10-30T03:27:12;20.80;;;10.15;;
32319;SDS011;19080;51.750;5.888;2022-10-30T03:29:38;14.90;;;8.90;;
32319;SDS011;19080;51.750;5.888;2022-10-30T03:32:11;16.50;;;9.38;;
32319;SDS011;19080;51.750;5.888;2022-10-30T03:34:44;13.85;;;7.95;;
32319;SDS011;19080;51.750;5.888;2022-10-30T03:37:10;20.67;;;8.35;;
32319;SDS011;19080;51.750;5.888;2022-10-30T03:39:37;16.17;;;8.68;;
32319;SDS011;19080;51.750;5.888;2022-10-30T03:42:03;14.60;;;8.95;;
32319;SDS011;19080;51.750;5.888;2022-10-30T03:44:31;16.52;;;9.05;;
32319;SDS011;19080;51.750;5.888;2022-10-30T03:46:57;21.45;;;10.43;;
32319;SDS011;19080;51.750;5.888;2022-10-30T03:49:31;12.45;;;9.25;;
32319;SDS011;19080;51.750;5.888;2022-10-30T03:52:01;16.20;;;10.32;;
32319;SDS011;19080;51.750;5.888;2022-10-30T03:54:27;13.80;;;9.63;;
32319;SDS011;19080;51.750;5.888;2022-10-30T03:56:54;17.48;;;9.43;;
32319;SDS011;19080;51.750;5.888;2022-10-30T03:59:23;20.05;;;9.52;;
32319;SDS011;19080;51.750;5.888;2022-10-30T04:02:15;17.45;;;9.20;;
32319;SDS011;19080;51.750;5.888;2022-10-30T04:04:42;11.70;;;9.35;;
32319;SDS011;19080;51.750;5.888;2022-10-30T04:07:09;17.85;;;9.27;;
32319;SDS011;19080;51.750;5.888;2022-10-30T04:09:35;13.65;;;9.40;;
32319;SDS011;19080;51.750;5.888;2022-10-30T04:12:02;12.88;;;8.85;;
32319;SDS011;19080;51.750;5.888;2022-10-30T04:14:29;12.80;;;8.60;;
32319;SDS011;19080;51.750;5.888;2022-10-30T04:16:56;13.20;;;8.10;;
32319;SDS011;19080;51.750;5.888;2022-10-30T04:19:22;13.95;;;9.32;;
32319;SDS011;19080;51.750;5.888;2022-10-30T04:21:49;16.23;;;9.43;;
32319;SDS011;19080;51.750;5.888;2022-10-30T04:24:17;14.23;;;9.68;;
32319;SDS011;19080;51.750;5.888;2022-10-30T04:26:46;15.98;;;7.82;;
32319;SDS011;19080;51.750;5.888;2022-10-30T04:29:13;12.00;;;7.72;;
32319;SDS011;19080;51.750;5.888;2022-10-30T04:31:39;15.82;;;9.02;;
32319;SDS011;19080;51.750;5.888;2022-10-30T04:34:05;13.18;;;8.90;;
32319;SDS011;19080;51.750;5.888;2022-10-30T04:36:32;14.10;;;8.60;;
32319;SDS011;19080;51.750;5.888;2022-10-30T04:38:59;14.88;;;7.88;;
32319;SDS011;19080;51.750;5.888;2022-10-30T04:41:27;15.52;;;8.75;;
32319;SDS011;19080;51.750;5.888;2022-10-30T04:44:00;12.57;;;8.52;;
32319;SDS011;19080;51.750;5.888;2022-10-30T04:46:30;14.02;;;8.15;;
32319;SDS011;19080;51.750;5.888;2022-10-30T04:49:03;11.05;;;8.18;;
32319;SDS011;19080;51.750;5.888;2022-10-30T04:51:29;14.88;;;9.25;;
32319;SDS011;19080;51.750;5.888;2022-10-30T04:53:56;16.73;;;8.10;;
32319;SDS011;19080;51.750;5.888;2022-10-30T04:56:25;23.98;;;8.63;;
32319;SDS011;19080;51.750;5.888;2022-10-30T04:58:51;13.35;;;8.35;;
32319;SDS011;19080;51.750;5.888;2022-10-30T05:01:18;15.98;;;8.52;;
32319;SDS011;19080;51.750;5.888;2022-10-30T05:03:45;14.15;;;9.45;;
32319;SDS011;19080;51.750;5.888;2022-10-30T05:06:20;14.13;;;9.65;;
32319;SDS011;19080;51.750;5.888;2022-10-30T05:08:47;18.65;;;9.57;;
32319;SDS011;19080;51.750;5.888;2022-10-30T05:11:26;13.68;;;8.13;;
32319;SDS011;19080;51.750;5.888;2022-10-30T05:13:53;14.68;;;9.98;;
32319;SDS011;19080;51.750;5.888;2022-10-30T05:16:20;12.75;;;8.38;;
32319;SDS011;19080;51.750;5.888;2022-10-30T05:18:47;16.77;;;9.05;;
32319;SDS011;19080;51.750;5.888;2022-10-30T05:21:13;17.10;;;9.73;;
32319;SDS011;19080;51.750;5.888;2022-10-30T05:23:40;17.02;;;9.43;;
32319;SDS011;19080;51.750;5.888;2022-10-30T05:26:06;12.90;;;8.48;;
32319;SDS011;19080;51.750;5.888;2022-10-30T05:28:33;14.73;;;9.82;;
32319;SDS011;19080;51.750;5.888;2022-10-30T05:30:59;16.95;;;9.90;;
32319;SDS011;19080;51.750;5.888;2022-10-30T05:34:01;11.65;;;9.05;;
32319;SDS011;19080;51.750;5.888;2022-10-30T05:36:32;16.15;;;10.32;;
32319;SDS011;19080;51.750;5.888;2022-10-30T05:38:59;18.00;;;11.02;;
32319;SDS011;19080;51.750;5.888;2022-10-30T05:41:31;18.65;;;10.35;;
32319;SDS011;19080;51.750;5.888;2022-10-30T05:43:58;12.63;;;9.40;;
32319;SDS011;19080;51.750;5.888;2022-10-30T05:46:24;22.55;;;10.23;;
32319;SDS011;19080;51.750;5.888;2022-10-30T05:48:52;14.68;;;9.20;;
32319;SDS011;19080;51.750;5.888;2022-10-30T05:51:20;21.15;;;10.32;;
32319;SDS011;19080;51.750;5.888;2022-10-30T05:53:51;34.60;;;14.10;;
32319;SDS011;19080;51.750;5.888;2022-10-30T05:56:20;33.10;;;14.18;;
32319;SDS011;19080;51.750;5.888;2022-10-30T05:58:48;33.40;;;15.02;;
32319;SDS011;19080;51.750;5.888;2022-10-30T06:01:15;28.85;;;14.38;;
32319;SDS011;19080;51.750;5.888;2022-10-30T06:03:47;30.90;;;15.02;;
32319;SDS011;19080;51.750;5.888;2022-10-30T06:06:14;27.33;;;13.93;;
32319;SDS011;19080;51.750;5.888;2022-10-30T06:08:42;40.05;;;15.75;;
32319;SDS011;19080;51.750;5.888;2022-10-30T06:11:26;26.65;;;13.57;;
32319;SDS011;19080;51.750;5.888;2022-10-30T06:13:54;26.85;;;13.82;;
32319;SDS011;19080;51.750;5.888;2022-10-30T06:16:33;26.35;;;13.02;;
32319;SDS011;19080;51.750;5.888;2022-10-30T06:19:18;18.42;;;11.98;;
32319;SDS011;19080;51.750;5.888;2022-10-30T06:21:48;19.23;;;10.43;;
32319;SDS011;19080;51.750;5.888;2022-10-30T06:24:31;16.70;;;9.88;;
32319;SDS011;19080;51.750;5.888;2022-10-30T06:27:17;16.70;;;10.50;;
32319;SDS011;19080;51.750;5.888;2022-10-30T06:29:47;20.15;;;10.00;;
32319;SDS011;19080;51.750;5.888;2022-10-30T06:32:14;15.00;;;9.70;;
32319;SDS011;19080;51.750;5.888;2022-10-30T06:34:43;16.45;;;9.45;;
32319;SDS011;19080;51.750;5.888;2022-10-30T06:37:11;17.98;;;9.60;;
32319;SDS011;19080;51.750;5.888;2022-10-30T06:39:39;19.60;;;9.88;;
32319;SDS011;19080;51.750;5.888;2022-10-30T06:42:27;12.75;;;8.90;;
32319;SDS011;19080;51.750;5.888;2022-10-30T06:45:05;17.45;;;9.30;;
32319;SDS011;19080;51.750;5.888;2022-10-30T06:47:36;16.92;;;9.40;;
32319;SDS011;19080;51.750;5.888;2022-10-30T06:50:03;16.25;;;9.15;;
32319;SDS011;19080;51.750;5.888;2022-10-30T06:52:29;18.63;;;9.52;;
32319;SDS011;19080;51.750;5.888;2022-10-30T06:54:56;16.50;;;10.23;;
32319;SDS011;19080;51.750;5.888;2022-10-30T06:58:00;15.63;;;9.85;;
32319;SDS011;19080;51.750;5.888;2022-10-30T07:00:51;17.10;;;10.90;;
32319;SDS011;19080;51.750;5.888;2022-10-30T07:03:50;21.65;;;11.15;;
32319;SDS011;19080;51.750;5.888;2022-10-30T07:06:17;15.90;;;10.82;;
32319;SDS011;19080;51.750;5.888;2022-10-30T07:08:43;16.30;;;10.73;;
32319;SDS011;19080;51.750;5.888;2022-10-30T07:11:12;19.63;;;10.73;;
32319;SDS011;19080;51.750;5.888;2022-10-30T07:14:01;16.13;;;10.07;;
32319;SDS011;19080;51.750;5.888;2022-10-30T07:16:52;16.92;;;10.50;;
32319;SDS011;19080;51.750;5.888;2022-10-30T07:19:19;14.73;;;10.40;;
32319;SDS011;19080;51.750;5.888;2022-10-30T07:21:45;15.70;;;9.43;;
32319;SDS011;19080;51.750;5.888;2022-10-30T07:24:12;17.80;;;9.77;;
32319;SDS011;19080;51.750;5.888;2022-10-30T07:26:48;21.33;;;10.52;;
32319;SDS011;19080;51.750;5.888;2022-10-30T07:29:34;13.65;;;10.35;;
32319;SDS011;19080;51.750;5.888;2022-10-30T07:32:15;13.77;;;9.30;;
32319;SDS011;19080;51.750;5.888;2022-10-30T07:35:07;15.13;;;9.30;;
32319;SDS011;19080;51.750;5.888;2022-10-30T07:37:53;13.15;;;8.82;;
32319;SDS011;19080;51.750;5.888;2022-10-30T07:40:27;14.88;;;9.48;;
32319;SDS011;19080;51.750;5.888;2022-10-30T07:43:13;10.98;;;9.15;;
32319;SDS011;19080;51.750;5.888;2022-10-30T07:46:20;14.25;;;9.02;;
32319;SDS011;19080;51.750;5.888;2022-10-30T07:49:06;16.80;;;10.23;;
32319;SDS011;19080;51.750;5.888;2022-10-30T07:51:47;15.93;;;9.85;;
32319;SDS011;19080;51.750;5.888;2022-10-30T07:54:14;18.63;;;10.02;;
32319;SDS011;19080;51.750;5.888;2022-10-30T07:56:41;17.77;;;9.75;;
32319;SDS011;19080;51.750;5.888;2022-10-30T07:59:16;16.08;;;9.70;;
32319;SDS011;19080;51.750;5.888;2022-10-30T08:02:03;18.70;;;10.02;;
32319;SDS011;19080;51.750;5.888;2022-10-30T08:04:38;13.88;;;9.50;;
32319;SDS011;19080;51.750;5.888;2022-10-30T08:07:21;14.27;;;8.52;;
32319;SDS011;19080;51.750;5.888;2022-10-30T08:09:48;18.20;;;9.85;;
32319;SDS011;19080;51.750;5.888;2022-10-30T08:12:15;18.42;;;10.00;;
32319;SDS011;19080;51.750;5.888;2022-10-30T08:14:42;17.23;;;10.32;;
32319;SDS011;19080;51.750;5.888;2022-10-30T08:17:08;14.45;;;10.48;;
32319;SDS011;19080;51.750;5.888;2022-10-30T08:19:37;12.90;;;8.88;;
32319;SDS011;19080;51.750;5.888;2022-10-30T08:22:03;17.13;;;9.77;;
32319;SDS011;19080;51.750;5.888;2022-10-30T08:24:34;19.50;;;10.15;;
32319;SDS011;19080;51.750;5.888;2022-10-30T08:27:00;19.33;;;9.75;;
32319;SDS011;19080;51.750;5.888;2022-10-30T08:29:27;17.42;;;9.63;;
32319;SDS011;19080;51.750;5.888;2022-10-30T08:31:54;19.70;;;10.48;;
32319;SDS011;19080;51.750;5.888;2022-10-30T08:34:20;19.13;;;10.63;;
32319;SDS011;19080;51.750;5.888;2022-10-30T08:36:54;14.57;;;10.20;;
32319;SDS011;19080;51.750;5.888;2022-10-30T08:39:21;16.88;;;10.48;;
32319;SDS011;19080;51.750;5.888;2022-10-30T08:41:55;14.70;;;9.63;;
32319;SDS011;19080;51.750;5.888;2022-10-30T08:44:22;18.65;;;10.50;;
32319;SDS011;19080;51.750;5.888;2022-10-30T08:47:07;20.10;;;11.63;;
32319;SDS011;19080;51.750;5.888;2022-10-30T08:49:34;20.70;;;10.98;;
32319;SDS011;19080;51.750;5.888;2022-10-30T08:52:06;18.67;;;11.18;;
32319;SDS011;19080;51.750;5.888;2022-10-30T08:54:32;17.05;;;10.68;;
32319;SDS011;19080;51.750;5.888;2022-10-30T08:56:59;16.83;;;10.75;;
32319;SDS011;19080;51.750;5.888;2022-10-30T08:59:26;15.55;;;10.77;;
32319;SDS011;19080;51.750;5.888;2022-10-30T09:01:56;18.17;;;10.88;;
32319;SDS011;19080;51.750;5.888;2022-10-30T09:04:42;15.55;;;10.63;;
32319;SDS011;19080;51.750;5.888;2022-10-30T09:07:27;17.77;;;9.38;;
32319;SDS011;19080;51.750;5.888;2022-10-30T09:10:14;16.77;;;9.98;;
32319;SDS011;19080;51.750;5.888;2022-10-30T09:12:41;22.13;;;11.02;;
32319;SDS011;19080;51.750;5.888;2022-10-30T09:15:07;19.25;;;10.73;;
32319;SDS011;19080;51.750;5.888;2022-10-30T09:17:45;19.83;;;11.82;;
32319;SDS011;19080;51.750;5.888;2022-10-30T09:20:11;15.63;;;10.32;;
32319;SDS011;19080;51.750;5.888;2022-10-30T09:22:41;21.63;;;11.35;;
32319;SDS011;19080;51.750;5.888;2022-10-30T09:25:08;14.07;;;10.85;;
32319;SDS011;19080;51.750;5.888;2022-10-30T09:27:45;18.92;;;11.13;;
32319;SDS011;19080;51.750;5.888;2022-10-30T09:30:12;21.95;;;11.77;;
32319;SDS011;19080;51.750;5.888;2022-10-30T09:32:43;17.25;;;12.18;;
32319;SDS011;19080;51.750;5.888;2022-10-30T09:35:14;15.98;;;11.32;;
32319;SDS011;19080;51.750;5.888;2022-10-30T09:37:42;17.08;;;11.23;;
32319;SDS011;19080;51.750;5.888;2022-10-30T09:40:20;15.85;;;11.70;;
32319;SDS011;19080;51.750;5.888;2022-10-30T09:42:47;19.83;;;11.68;;
32319;SDS011;19080;51.750;5.888;2022-10-30T09:45:25;20.27;;;12.23;;
32319;SDS011;19080;51.750;5.888;2022-10-30T09:50:58;18.27;;;11.27;;
32319;SDS011;19080;51.750;5.888;2022-10-30T09:56:23;18.00;;;11.30;;
32319;SDS011;19080;51.750;5.888;2022-10-30T10:01:42;19.23;;;11.73;;
32319;SDS011;19080;51.750;5.888;2022-10-30T10:04:18;19.23;;;11.55;;
32319;SDS011;19080;51.750;5.888;2022-10-30T10:07:15;20.88;;;10.80;;
32319;SDS011;19080;51.750;5.888;2022-10-30T10:10:10;15.73;;;10.27;;
32319;SDS011;19080;51.750;5.888;2022-10-30T10:12:47;19.15;;;9.05;;
32319;SDS011;19080;51.750;5.888;2022-10-30T10:17:59;15.48;;;8.30;;
32319;SDS011;19080;51.750;5.888;2022-10-30T10:22:54;23.00;;;8.68;;
32319;SDS011;19080;51.750;5.888;2022-10-30T10:25:23;15.45;;;8.77;;
32319;SDS011;19080;51.750;5.888;2022-10-30T10:28:00;18.70;;;9.07;;
32319;SDS011;19080;51.750;5.888;2022-10-30T10:30:41;19.23;;;9.70;;
32319;SDS011;19080;51.750;5.888;2022-10-30T10:35:52;19.70;;;10.05;;
32319;SDS011;19080;51.750;5.888;2022-10-30T10:41:09;15.20;;;8.82;;
32319;SDS011;19080;51.750;5.888;2022-10-30T10:49:15;21.70;;;9.27;;
32319;SDS011;19080;51.750;5.888;2022-10-30T10:51:47;18.73;;;8.05;;
32319;SDS011;19080;51.750;5.888;2022-10-30T10:54:16;17.08;;;8.57;;
32319;SDS011;19080;51.750;5.888;2022-10-30T10:56:43;15.98;;;9.05;;
32319;SDS011;19080;51.750;5.888;2022-10-30T10:59:16;16.00;;;9.10;;
32319;SDS011;19080;51.750;5.888;2022-10-30T11:01:55;17.95;;;9.38;;
32319;SDS011;19080;51.750;5.888;2022-10-30T11:04:29;15.52;;;9.60;;
32319;SDS011;19080;51.750;5.888;2022-10-30T11:06:57;17.13;;;8.90;;
32319;SDS011;19080;51.750;5.888;2022-10-30T11:09:25;17.48;;;9.77;;
32319;SDS011;19080;51.750;5.888;2022-10-30T11:11:54;21.73;;;11.27;;
32319;SDS011;19080;51.750;5.888;2022-10-30T11:14:27;15.40;;;9.45;;
32319;SDS011;19080;51.750;5.888;2022-10-30T11:17:04;20.00;;;9.38;;
32319;SDS011;19080;51.750;5.888;2022-10-30T11:19:35;18.80;;;10.03;;
32319;SDS011;19080;51.750;5.888;2022-10-30T11:22:02;14.25;;;9.20;;
32319;SDS011;19080;51.750;5.888;2022-10-30T11:24:33;18.60;;;8.65;;
32319;SDS011;19080;51.750;5.888;2022-10-30T11:30:01;17.60;;;9.10;;
32319;SDS011;19080;51.750;5.888;2022-10-30T11:32:29;15.65;;;9.10;;
32319;SDS011;19080;51.750;5.888;2022-10-30T11:34:59;14.32;;;8.75;;
32319;SDS011;19080;51.750;5.888;2022-10-30T11:37:31;16.25;;;9.07;;
32319;SDS011;19080;51.750;5.888;2022-10-30T11:40:02;16.90;;;10.23;;
32319;SDS011;19080;51.750;5.888;2022-10-30T11:42:29;18.17;;;9.40;;
32319;SDS011;19080;51.750;5.888;2022-10-30T11:44:55;16.45;;;8.93;;
32319;SDS011;19080;51.750;5.888;2022-10-30T11:47:25;16.75;;;9.60;;
32319;SDS011;19080;51.750;5.888;2022-10-30T11:52:21;22.35;;;9.43;;
32319;SDS011;19080;51.750;5.888;2022-10-30T11:54:49;21.83;;;9.40;;
32319;SDS011;19080;51.750;5.888;2022-10-30T11:59:45;23.88;;;9.93;;
32319;SDS011;19080;51.750;5.888;2022-10-30T12:02:31;21.70;;;9.60;;
32319;SDS011;19080;51.750;5.888;2022-10-30T12:05:12;16.65;;;8.57;;
32319;SDS011;19080;51.750;5.888;2022-10-30T12:07:49;19.65;;;10.07;;
32319;SDS011;19080;51.750;5.888;2022-10-30T12:10:25;14.93;;;9.75;;
32319;SDS011;19080;51.750;5.888;2022-10-30T12:12:52;19.35;;;9.57;;
32319;SDS011;19080;51.750;5.888;2022-10-30T12:15:19;15.75;;;9.20;;
32319;SDS011;19080;51.750;5.888;2022-10-30T12:17:53;19.45;;;10.77;;
32319;SDS011;19080;51.750;5.888;2022-10-30T12:20:20;20.98;;;10.40;;
32319;SDS011;19080;51.750;5.888;2022-10-30T12:22:47;17.33;;;10.32;;
32319;SDS011;19080;51.750;5.888;2022-10-30T12:27:43;16.17;;;9.27;;
32319;SDS011;19080;51.750;5.888;2022-10-30T12:30:16;22.10;;;10.45;;
32319;SDS011;19080;51.750;5.888;2022-10-30T12:32:50;18.83;;;10.32;;
32319;SDS011;19080;51.750;5.888;2022-10-30T12:38:00;16.90;;;8.32;;
32319;SDS011;19080;51.750;5.888;2022-10-30T12:40:34;15.85;;;9.60;;
32319;SDS011;19080;51.750;5.888;2022-10-30T12:43:03;13.68;;;9.27;;
32319;SDS011;19080;51.750;5.888;2022-10-30T12:45:34;17.77;;;9.52;;
32319;SDS011;19080;51.750;5.888;2022-10-30T12:48:04;15.90;;;10.75;;
32319;SDS011;19080;51.750;5.888;2022-10-30T12:50:45;16.02;;;10.10;;
32319;SDS011;19080;51.750;5.888;2022-10-30T12:53:31;19.00;;;10.88;;
32319;SDS011;19080;51.750;5.888;2022-10-30T12:56:03;18.20;;;9.77;;
32319;SDS011;19080;51.750;5.888;2022-10-30T12:58:38;15.27;;;10.30;;
32319;SDS011;19080;51.750;5.888;2022-10-30T13:01:31;19.95;;;9.90;;
32319;SDS011;19080;51.750;5.888;2022-10-30T13:04:07;14.77;;;9.32;;
32319;SDS011;19080;51.750;5.888;2022-10-30T13:06:37;13.40;;;9.13;;
32319;SDS011;19080;51.750;5.888;2022-10-30T13:14:19;18.13;;;10.98;;
32319;SDS011;19080;51.750;5.888;2022-10-30T13:16:49;15.50;;;9.98;;
32319;SDS011;19080;51.750;5.888;2022-10-30T13:19:15;16.05;;;9.88;;
32319;SDS011;19080;51.750;5.888;2022-10-30T13:27:01;14.63;;;9.80;;
32319;SDS011;19080;51.750;5.888;2022-10-30T13:29:30;23.33;;;11.23;;
32319;SDS011;19080;51.750;5.888;2022-10-30T13:32:09;14.02;;;9.05;;
32319;SDS011;19080;51.750;5.888;2022-10-30T13:37:26;14.35;;;9.65;;
32319;SDS011;19080;51.750;5.888;2022-10-30T13:40:04;18.67;;;10.68;;
32319;SDS011;19080;51.750;5.888;2022-10-30T13:42:45;18.67;;;10.25;;
32319;SDS011;19080;51.750;5.888;2022-10-30T13:45:23;19.05;;;10.43;;
32319;SDS011;19080;51.750;5.888;2022-10-30T13:53:14;18.58;;;9.52;;
32319;SDS011;19080;51.750;5.888;2022-10-30T13:55:42;18.38;;;10.48;;
32319;SDS011;19080;51.750;5.888;2022-10-30T14:00:45;17.88;;;9.40;;
32319;SDS011;19080;51.750;5.888;2022-10-30T14:05:50;16.10;;;9.73;;
32319;SDS011;19080;51.750;5.888;2022-10-30T14:11:03;17.73;;;10.38;;
32319;SDS011;19080;51.750;5.888;2022-10-30T14:16:00;14.43;;;9.32;;
32319;SDS011;19080;51.750;5.888;2022-10-30T14:18:28;15.00;;;9.60;;
32319;SDS011;19080;51.750;5.888;2022-10-30T14:20:55;15.52;;;10.48;;
32319;SDS011;19080;51.750;5.888;2022-10-30T14:23:32;20.83;;;10.27;;
32319;SDS011;19080;51.750;5.888;2022-10-30T14:28:29;15.25;;;8.52;;
32319;SDS011;19080;51.750;5.888;2022-10-30T14:31:06;18.60;;;9.95;;
32319;SDS011;19080;51.750;5.888;2022-10-30T14:33:35;12.38;;;8.93;;
32319;SDS011;19080;51.750;5.888;2022-10-30T14:36:13;15.60;;;9.23;;
32319;SDS011;19080;51.750;5.888;2022-10-30T14:38:40;15.10;;;8.20;;
32319;SDS011;19080;51.750;5.888;2022-10-30T14:41:21;15.48;;;9.52;;
32319;SDS011;19080;51.750;5.888;2022-10-30T14:46:32;16.48;;;9.75;;
32319;SDS011;19080;51.750;5.888;2022-10-30T14:49:05;19.55;;;10.40;;
32319;SDS011;19080;51.750;5.888;2022-10-30T14:51:39;12.73;;;9.27;;
32319;SDS011;19080;51.750;5.888;2022-10-30T14:56:44;15.52;;;8.70;;
32319;SDS011;19080;51.750;5.888;2022-10-30T15:06:53;13.93;;;8.93;;
32319;SDS011;19080;51.750;5.888;2022-10-30T15:14:26;14.70;;;8.55;;
32319;SDS011;19080;51.750;5.888;2022-10-30T15:17:30;12.65;;;9.10;;
32319;SDS011;19080;51.750;5.888;2022-10-30T15:19:58;12.48;;;8.48;;
32319;SDS011;19080;51.750;5.888;2022-10-30T15:22:26;18.33;;;9.85;;
32319;SDS011;19080;51.750;5.888;2022-10-30T15:24:53;18.17;;;9.15;;
32319;SDS011;19080;51.750;5.888;2022-10-30T15:27:20;19.15;;;9.93;;
32319;SDS011;19080;51.750;5.888;2022-10-30T15:29:49;17.25;;;10.35;;
32319;SDS011;19080;51.750;5.888;2022-10-30T15:32:18;18.05;;;10.35;;
32319;SDS011;19080;51.750;5.888;2022-10-30T15:37:54;17.63;;;8.82;;
32319;SDS011;19080;51.750;5.888;2022-10-30T15:40:21;14.18;;;8.65;;
32319;SDS011;19080;51.750;5.888;2022-10-30T15:42:47;17.73;;;9.35;;
32319;SDS011;19080;51.750;5.888;2022-10-30T15:45:16;19.92;;;10.07;;
32319;SDS011;19080;51.750;5.888;2022-10-30T15:47:46;16.33;;;9.30;;
32319;SDS011;19080;51.750;5.888;2022-10-30T15:50:14;14.57;;;8.68;;
32319;SDS011;19080;51.750;5.888;2022-10-30T15:52:41;20.02;;;8.88;;
32319;SDS011;19080;51.750;5.888;2022-10-30T15:55:08;17.02;;;8.65;;
32319;SDS011;19080;51.750;5.888;2022-10-30T15:57:45;12.02;;;8.57;;
32319;SDS011;19080;51.750;5.888;2022-10-30T16:00:33;15.57;;;8.02;;
32319;SDS011;19080;51.750;5.888;2022-10-30T16:03:04;12.95;;;7.97;;
32319;SDS011;19080;51.750;5.888;2022-10-30T16:05:31;13.77;;;8.18;;
32319;SDS011;19080;51.750;5.888;2022-10-30T16:07:59;12.45;;;7.45;;
32319;SDS011;19080;51.750;5.888;2022-10-30T16:10:30;11.27;;;6.55;;
32319;SDS011;19080;51.750;5.888;2022-10-30T16:12:57;10.35;;;6.82;;
32319;SDS011;19080;51.750;5.888;2022-10-30T16:15:28;11.85;;;7.20;;
32319;SDS011;19080;51.750;5.888;2022-10-30T16:17:59;16.25;;;7.25;;
32319;SDS011;19080;51.750;5.888;2022-10-30T16:20:28;10.35;;;6.47;;
32319;SDS011;19080;51.750;5.888;2022-10-30T16:22:55;16.00;;;8.02;;
32319;SDS011;19080;51.750;5.888;2022-10-30T16:25:21;15.82;;;8.13;;
32319;SDS011;19080;51.750;5.888;2022-10-30T16:27:48;13.20;;;7.25;;
32319;SDS011;19080;51.750;5.888;2022-10-30T16:30:14;16.05;;;10.18;;
32319;SDS011;19080;51.750;5.888;2022-10-30T16:32:41;18.35;;;13.75;;
32319;SDS011;19080;51.750;5.888;2022-10-30T16:35:10;17.30;;;14.98;;
32319;SDS011;19080;51.750;5.888;2022-10-30T16:37:37;13.77;;;8.43;;
32319;SDS011;19080;51.750;5.888;2022-10-30T16:40:05;23.17;;;7.50;;
32319;SDS011;19080;51.750;5.888;2022-10-30T16:42:35;12.65;;;6.53;;